Time;durP1;ratioP1;P1;durP2;ratioP2;P2;SDS_P1;SDS_P2;PMS_P1;PMS_P2;Temp;Humidity;BMP_temperature;BMP_pressure;BME280_temperature;BME280_humidity;BME280_pressure;Samples;Min_cycle;Max_cycle;Signal;HPM_P1;HPM_P2
2023/05/12 00:01:40;;;;;;;;;;;;;;;9.78;62.59;102356.72;5074960;28;20026;-67
2023/05/12 00:04:06;;;;;;;;;;;;;;;9.80;63.77;102360.09;5074933;28;20386;-67
2023/05/12 00:06:31;;;;;;;;;;;;;;;9.78;66.27;102358.53;5074784;28;19913;-66
2023/05/12 00:08:56;;;;;;;;;;;;;;;9.72;66.29;102361.66;5074748;28;19919;-68
2023/05/12 00:11:22;;;;;;;;;;;;;;;9.70;64.82;102356.47;5074958;28;19912;-67
2023/05/12 00:13:47;;;;;;;;;;;;;;;9.70;64.96;102353.81;5074550;28;19913;-67
2023/05/12 00:16:14;;;;;;;;;;;;;;;9.68;66.08;102361.06;5074874;28;20438;-66
2023/05/12 00:18:39;;;;;;;;;;;;;;;9.67;64.95;102356.69;5074509;28;20011;-66
2023/05/12 00:21:07;;;;;;;;;;;;;;;9.65;66.35;102355.97;5074658;28;19951;-66
2023/05/12 00:23:33;;;;;;;;;;;;;;;9.63;66.43;102355.25;5073268;28;19912;-66
2023/05/12 00:25:58;;;;;;;;;;;;;;;9.59;65.83;102349.31;5073075;28;20430;-66
2023/05/12 00:28:23;;;;;;;;;;;;;;;9.55;67.92;102355.84;5074099;28;19912;-67
2023/05/12 00:30:49;;;;;;;;;;;;;;;9.54;67.10;102353.28;5073186;28;19916;-66
2023/05/12 00:33:15;;;;;;;;;;;;;;;9.49;67.42;102352.78;5074435;28;19952;-67
2023/05/12 00:35:41;;;;;;;;;;;;;;;9.44;67.61;102358.44;5074149;28;19912;-67
2023/05/12 00:38:06;;;;;;;;;;;;;;;9.39;68.21;102360.63;5074355;28;19922;-66
2023/05/12 00:40:32;;;;;;;;;;;;;;;9.33;68.40;102353.09;5074060;28;20318;-68
2023/05/12 00:42:57;;;;;;;;;;;;;;;9.29;69.16;102354.31;5074068;28;19920;-67
2023/05/12 00:45:23;;;;;;;;;;;;;;;9.24;70.11;102359.09;5073051;28;19998;-67
2023/05/12 00:47:50;;;;;;;;;;;;;;;9.24;74.76;102361.75;5073937;28;20347;-67
2023/05/12 00:50:16;;;;;;;;;;;;;;;9.22;74.04;102356.56;5073948;28;20012;-68
2023/05/12 00:52:41;;;;;;;;;;;;;;;9.23;73.74;102363.56;5073872;28;19956;-66
2023/05/12 00:55:07;;;;;;;;;;;;;;;9.23;76.97;102360.91;5074127;28;19931;-67
2023/05/12 00:57:32;;;;;;;;;;;;;;;9.26;75.83;102365.19;5073563;28;19912;-67
2023/05/12 00:59:57;;;;;;;;;;;;;;;9.26;73.93;102362.53;5073837;28;19912;-67
2023/05/12 01:02:23;;;;;;;;;;;;;;;9.26;74.25;102365.19;5073727;28;19912;-66
2023/05/12 01:04:49;;;;;;;;;;;;;;;9.27;73.07;102359.75;5073645;28;19913;-66
2023/05/12 01:07:17;;;;;;;;;;;;;;;9.26;75.77;102357.19;5073608;28;19921;-66
2023/05/12 01:09:42;;;;;;;;;;;;;;;9.27;75.88;102353.56;5073467;28;19923;-66
2023/05/12 01:12:08;;;;;;;;;;;;;;;9.26;75.89;102359.84;5073548;28;19912;-67
2023/05/12 01:14:33;;;;;;;;;;;;;;;9.27;79.32;102358.91;5073582;28;20360;-67
2023/05/12 01:17:00;;;;;;;;;;;;;;;9.26;75.61;102363.38;5073561;28;20082;-67
2023/05/12 01:19:28;;;;;;;;;;;;;;;9.26;76.10;102367.84;5073387;28;19913;-67
2023/05/12 01:21:54;;;;;;;;;;;;;;;9.24;78.72;102369.72;5073315;28;20344;-67
2023/05/12 01:24:23;;;;;;;;;;;;;;;9.21;77.27;102364.66;5073332;28;19959;-68
2023/05/12 01:26:48;;;;;;;;;;;;;;;9.20;77.59;102363.78;5073261;28;20372;-66
2023/05/12 01:29:14;;;;;;;;;;;;;;;9.20;77.10;102374.44;5073262;28;20023;-67
2023/05/12 01:31:39;;;;;;;;;;;;;;;9.22;77.28;102374.31;5073199;28;19947;-67
2023/05/12 01:34:04;;;;;;;;;;;;;;;9.21;78.75;102369.97;5073123;28;19985;-67
2023/05/12 01:36:30;;;;;;;;;;;;;;;9.24;74.54;102372.38;5073130;28;19965;-67
2023/05/12 01:38:56;;;;;;;;;;;;;;;9.27;75.42;102369.53;5072927;28;19923;-67
2023/05/12 01:41:21;;;;;;;;;;;;;;;9.28;75.16;102366.75;5073063;28;19912;-66
2023/05/12 01:43:47;;;;;;;;;;;;;;;9.31;75.82;102360.34;5072962;28;19912;-67
2023/05/12 01:46:12;;;;;;;;;;;;;;;9.32;74.83;102367.38;5072309;28;20058;-68
2023/05/12 01:48:37;;;;;;;;;;;;;;;9.33;74.37;102371.72;5072579;28;19955;-67
2023/05/12 01:51:05;;;;;;;;;;;;;;;9.31;73.98;102374.50;5072856;28;19920;-66
2023/05/12 01:53:31;;;;;;;;;;;;;;;9.30;74.33;102370.16;5071477;28;19912;-68
2023/05/12 01:55:56;;;;;;;;;;;;;;;9.28;74.82;102377.38;5072518;28;20026;-67
2023/05/12 01:58:21;;;;;;;;;;;;;;;9.26;76.95;102375.81;5072851;28;19918;-67
2023/05/12 02:00:46;;;;;;;;;;;;;;;9.26;75.28;102374.00;5072376;28;20394;-68
2023/05/12 02:03:12;;;;;;;;;;;;;;;9.28;75.66;102376.53;5072610;28;19912;-67
2023/05/12 02:05:37;;;;;;;;;;;;;;;9.28;76.18;102376.53;5072600;28;20351;-67
2023/05/12 02:08:03;;;;;;;;;;;;;;;9.29;74.70;102372.91;5072578;28;19913;-67
2023/05/12 02:10:29;;;;;;;;;;;;;;;9.29;75.50;102378.25;5072321;28;19916;-66
2023/05/12 02:12:54;;;;;;;;;;;;;;;9.30;76.23;102379.94;5072522;28;19916;-67
2023/05/12 02:15:19;;;;;;;;;;;;;;;9.31;74.95;102376.31;5072551;28;19912;-67
2023/05/12 02:17:45;;;;;;;;;;;;;;;9.32;74.02;102378.00;5072364;28;19927;-66
2023/05/12 02:20:11;;;;;;;;;;;;;;;9.32;74.88;102373.53;5072433;28;19919;-67
2023/05/12 02:22:36;;;;;;;;;;;;;;;9.33;77.93;102382.34;5072444;28;19981;-69
2023/05/12 02:25:01;;;;;;;;;;;;;;;9.34;77.46;102376.06;5071109;28;19913;-69
2023/05/12 02:27:27;;;;;;;;;;;;;;;9.35;77.42;102376.94;5072535;28;19912;-68
2023/05/12 02:29:52;;;;;;;;;;;;;;;9.36;78.52;102378.63;5072483;28;19912;-71
2023/05/12 02:32:18;;;;;;;;;;;;;;;9.37;77.86;102375.84;5072556;28;20291;-68
2023/05/12 02:34:44;;;;;;;;;;;;;;;9.38;77.96;102377.53;5072500;28;19958;-71
2023/05/12 02:37:10;;;;;;;;;;;;;;;9.43;78.35;102375.38;5072252;28;19975;-68
2023/05/12 02:39:35;;;;;;;;;;;;;;;9.44;80.46;102382.38;5072217;28;20392;-68
2023/05/12 02:42:00;;;;;;;;;;;;;;;9.47;80.44;102375.97;5072378;28;19912;-69
2023/05/12 02:44:26;;;;;;;;;;;;;;;9.47;82.21;102387.47;5072591;28;19948;-67
2023/05/12 02:46:51;;;;;;;;;;;;;;;9.51;83.53;102380.94;5070700;28;19919;-66
2023/05/12 02:49:17;;;;;;;;;;;;;;;9.51;83.33;102378.28;5070538;28;19916;-66
2023/05/12 02:51:42;;;;;;;;;;;;;;;9.53;84.28;102384.34;5072016;28;19916;-66
2023/05/12 02:54:07;;;;;;;;;;;;;;;9.58;81.08;102379.53;5071995;28;20420;-66
2023/05/12 02:56:33;;;;;;;;;;;;;;;9.64;81.46;102378.22;5071895;28;19912;-67
2023/05/12 02:58:58;;;;;;;;;;;;;;;9.72;81.19;102374.97;5076132;28;19913;-67
2023/05/12 03:01:23;;;;;;;;;;;;;;;9.79;81.03;102378.84;5076166;28;19969;-66
2023/05/12 03:03:49;;;;;;;;;;;;;;;9.85;81.43;102378.41;5075907;28;19912;-66
2023/05/12 03:06:14;;;;;;;;;;;;;;;10.17;82.00;102382.06;5075708;28;19916;-67
2023/05/12 03:08:39;;;;;;;;;;;;;;;11.52;77.75;102387.09;5076101;28;19912;-66
2023/05/12 03:11:05;;;;;;;;;;;;;;;13.53;67.66;102374.56;5076069;28;19924;-66
2023/05/12 03:13:30;;;;;;;;;;;;;;;15.15;60.21;102376.72;5075934;28;19916;-66
2023/05/12 03:16:00;;;;;;;;;;;;;;;16.21;55.52;102377.53;5075949;28;19920;-67
2023/05/12 03:18:25;;;;;;;;;;;;;;;16.98;51.88;102378.31;5075805;28;19923;-66
2023/05/12 03:20:50;;;;;;;;;;;;;;;17.69;50.08;102376.88;5075663;28;19913;-67
2023/05/12 03:23:16;;;;;;;;;;;;;;;18.42;49.01;102373.97;5075498;28;19912;-67
2023/05/12 03:25:41;;;;;;;;;;;;;;;19.05;47.39;102371.13;5075513;28;20010;-66
2023/05/12 03:28:06;;;;;;;;;;;;;;;19.45;45.09;102378.09;5075660;28;19912;-67
2023/05/12 03:30:32;;;;;;;;;;;;;;;19.50;44.50;102381.06;5075565;28;19963;-67
2023/05/12 03:33:00;;;;;;;;;;;;;;;18.78;44.82;102379.72;5075632;28;19913;-68
2023/05/12 03:35:25;;;;;;;;;;;;;;;18.31;45.91;102380.59;5075874;28;20008;-67
2023/05/12 03:37:51;;;;;;;;;;;;;;;17.97;47.14;102378.19;5075696;28;19919;-67
2023/05/12 03:40:17;;;;;;;;;;;;;;;17.23;48.79;102384.59;5076147;28;19916;-67
2023/05/12 03:42:44;;;;;;;;;;;;;;;16.20;51.07;102393.81;5075469;28;19913;-68
2023/05/12 03:45:09;;;;;;;;;;;;;;;15.16;55.93;102385.59;5075444;28;19912;-68
2023/05/12 03:47:35;;;;;;;;;;;;;;;14.59;57.51;102389.50;5073795;28;20271;-68
2023/05/12 03:50:00;;;;;;;;;;;;;;;14.12;60.07;102386.84;5075031;28;19924;-68
2023/05/12 03:52:26;;;;;;;;;;;;;;;14.39;60.27;102384.19;5074910;28;19993;-67
2023/05/12 03:54:51;;;;;;;;;;;;;;;14.97;57.21;102391.09;5073967;28;19919;-69
2023/05/12 03:57:17;;;;;;;;;;;;;;;15.19;56.62;102385.28;5074909;28;19912;-67
2023/05/12 03:59:42;;;;;;;;;;;;;;;15.42;55.11;102391.88;5075081;28;19924;-67
2023/05/12 04:02:10;;;;;;;;;;;;;;;15.12;55.33;102387.75;5075431;28;20276;-67
2023/05/12 04:04:36;;;;;;;;;;;;;;;14.64;57.47;102384.53;5074867;28;19973;-68
2023/05/12 04:07:01;;;;;;;;;;;;;;;14.55;59.39;102389.81;5074617;28;19912;-67
2023/05/12 04:09:26;;;;;;;;;;;;;;;15.58;56.89;102398.38;5073985;28;19913;-67
2023/05/12 04:11:52;;;;;;;;;;;;;;;17.10;51.97;102386.94;5074995;28;19927;-67
2023/05/12 04:14:18;;;;;;;;;;;;;;;18.44;48.86;102388.13;5074798;28;20340;-68
2023/05/12 04:16:43;;;;;;;;;;;;;;;19.47;45.54;102397.66;5074730;28;20019;-69
2023/05/12 04:19:08;;;;;;;;;;;;;;;19.95;43.01;102390.16;5074722;28;19913;-69
2023/05/12 04:21:34;;;;;;;;;;;;;;;18.92;43.85;102394.34;5074410;28;19969;-67
2023/05/12 04:23:59;;;;;;;;;;;;;;;17.31;47.70;102389.97;5074646;28;19912;-70
2023/05/12 04:29:46;;;;;;;;;;;;;;;16.47;51.75;102404.34;5073312;28;19971;-68
2023/05/12 04:32:12;;;;;;;;;;;;;;;17.90;48.10;102399.56;5074507;28;19960;-68
2023/05/12 04:34:37;;;;;;;;;;;;;;;19.02;45.21;102397.63;5073979;28;19912;-73
2023/05/12 04:37:02;;;;;;;;;;;;;;;19.66;43.22;102398.19;5073606;28;19967;-68
2023/05/12 04:39:28;;;;;;;;;;;;;;;19.28;43.58;102398.13;5073982;28;19912;-68
2023/05/12 04:41:53;;;;;;;;;;;;;;;18.82;44.28;102408.06;5074186;28;20279;-68
2023/05/12 04:44:18;;;;;;;;;;;;;;;18.29;45.36;102404.22;5073979;28;19912;-68
2023/05/12 04:46:44;;;;;;;;;;;;;;;18.74;44.70;102406.22;5074775;28;19924;-68
2023/05/12 04:49:10;;;;;;;;;;;;;;;19.34;43.99;102410.06;5074407;28;19923;-68
2023/05/12 04:51:40;;;;;;;;;;;;;;;19.96;42.51;102412.63;5074260;28;20015;-68
2023/05/12 04:54:08;;;;;;;;;;;;;;;20.39;41.67;102417.22;5073997;28;20019;-67
2023/05/12 04:56:33;;;;;;;;;;;;;;;20.54;40.69;102422.66;5073878;28;19912;-68
2023/05/12 04:58:59;;;;;;;;;;;;;;;20.52;41.06;102421.13;5073712;28;19923;-67
2023/05/12 05:01:24;;;;;;;;;;;;;;;20.15;41.45;102422.88;5073969;28;19912;-68
2023/05/12 05:03:50;;;;;;;;;;;;;;;19.23;43.10;102422.16;5073480;28;19979;-68
2023/05/12 05:06:15;;;;;;;;;;;;;;;18.64;44.72;102410.19;5073531;28;19912;-68
2023/05/12 05:08:41;;;;;;;;;;;;;;;17.69;46.76;102420.84;5073494;28;20385;-68
2023/05/12 05:11:06;;;;;;;;;;;;;;;16.26;50.86;102415.53;5073576;28;20197;-67
2023/05/12 05:13:31;;;;;;;;;;;;;;;15.28;54.50;102423.78;5073509;28;20007;-68
2023/05/12 05:15:57;;;;;;;;;;;;;;;14.65;56.42;102418.41;5073267;28;20355;-68
2023/05/12 05:18:22;;;;;;;;;;;;;;;14.23;58.56;102429.56;5073458;28;19912;-68
2023/05/12 05:20:47;;;;;;;;;;;;;;;14.05;59.50;102433.97;5072486;28;19919;-68
2023/05/12 05:23:13;;;;;;;;;;;;;;;13.94;59.08;102430.47;5073635;28;19958;-68
2023/05/12 05:25:38;;;;;;;;;;;;;;;13.84;59.58;102428.78;5073316;28;19944;-67
2023/05/12 05:28:03;;;;;;;;;;;;;;;13.69;60.75;102428.41;5073070;28;19958;-68
2023/05/12 05:30:29;;;;;;;;;;;;;;;13.67;60.39;102425.00;5073035;28;19913;-70
2023/05/12 05:32:54;;;;;;;;;;;;;;;13.65;61.26;102432.34;5073609;28;20232;-68
2023/05/12 05:35:19;;;;;;;;;;;;;;;13.62;61.80;102425.44;5073169;28;19916;-69
2023/05/12 05:37:46;;;;;;;;;;;;;;;13.60;61.59;102429.25;5073429;28;20263;-68
2023/05/12 05:40:11;;;;;;;;;;;;;;;13.54;61.53;102430.63;5072984;28;19912;-68
2023/05/12 05:42:36;;;;;;;;;;;;;;;13.51;61.92;102430.94;5072773;28;19923;-68
2023/05/12 05:45:02;;;;;;;;;;;;;;;13.53;61.68;102426.28;5072828;28;20376;-68
2023/05/12 05:47:30;;;;;;;;;;;;;;;13.56;61.77;102433.19;5073074;28;19912;-67
2023/05/12 05:49:55;;;;;;;;;;;;;;;13.55;62.47;102431.50;5071591;28;19920;-68
2023/05/12 05:52:21;;;;;;;;;;;;;;;13.55;62.73;102431.50;5072695;28;19912;-67
2023/05/12 05:54:46;;;;;;;;;;;;;;;13.54;62.89;102432.47;5072677;28;19958;-68
2023/05/12 05:57:12;;;;;;;;;;;;;;;13.61;63.90;102434.47;5072542;28;20011;-68
2023/05/12 05:59:37;;;;;;;;;;;;;;;13.69;62.48;102436.44;5072472;28;19912;-67
2023/05/12 06:02:02;;;;;;;;;;;;;;;13.71;62.67;102439.81;5072479;28;19920;-68
2023/05/12 06:04:28;;;;;;;;;;;;;;;13.65;62.25;102432.34;5073001;28;19938;-66
2023/05/12 06:06:53;;;;;;;;;;;;;;;13.65;63.22;102427.00;5072874;28;19923;-68
2023/05/12 06:09:19;;;;;;;;;;;;;;;13.70;63.39;102434.59;5072472;28;19943;-67
2023/05/12 06:11:44;;;;;;;;;;;;;;;13.78;62.24;102427.53;5072743;28;19928;-71
2023/05/12 06:14:10;;;;;;;;;;;;;;;13.85;61.80;102431.31;5072483;28;19943;-68
2023/05/12 06:16:35;;;;;;;;;;;;;;;13.87;61.89;102431.16;5072755;28;20002;-68
2023/05/12 06:19:01;;;;;;;;;;;;;;;13.94;62.07;102427.78;5072635;28;19920;-68
2023/05/12 06:21:26;;;;;;;;;;;;;;;14.02;61.39;102428.91;5072548;28;20368;-68
2023/05/12 06:23:53;;;;;;;;;;;;;;;14.04;60.70;102432.28;5071334;28;19920;-69
2023/05/12 06:26:18;;;;;;;;;;;;;;;14.04;61.22;102432.28;5072481;28;19912;-67
2023/05/12 06:28:44;;;;;;;;;;;;;;;14.10;60.73;102434.38;5072169;28;19923;-68
2023/05/12 06:31:09;;;;;;;;;;;;;;;14.17;60.36;102427.47;5072405;28;19912;-70
2023/05/12 06:33:35;;;;;;;;;;;;;;;14.23;59.59;102426.88;5072030;28;19971;-68
2023/05/12 06:36:00;;;;;;;;;;;;;;;14.25;59.92;102428.41;5072201;28;20367;-67
2023/05/12 06:38:25;;;;;;;;;;;;;;;14.22;59.85;102435.91;5072213;28;19919;-67
2023/05/12 06:40:50;;;;;;;;;;;;;;;14.22;59.98;102431.41;5072110;28;19919;-68
2023/05/12 06:43:17;;;;;;;;;;;;;;;14.24;61.14;102433.94;5072078;28;19922;-67
2023/05/12 06:45:43;;;;;;;;;;;;;;;14.30;60.47;102438.69;5072482;28;20010;-69
2023/05/12 06:48:09;;;;;;;;;;;;;;;14.32;59.53;102438.53;5072044;28;19924;-69
2023/05/12 06:50:34;;;;;;;;;;;;;;;14.31;60.07;102436.84;5070954;28;19916;-68
2023/05/12 06:52:59;;;;;;;;;;;;;;;14.33;60.42;102438.41;5072391;28;19918;-67
2023/05/12 06:55:25;;;;;;;;;;;;;;;14.39;61.43;102437.81;5072450;28;19957;-68
2023/05/12 06:57:54;;;;;;;;;;;;;;;14.43;60.50;102439.22;5072319;28;19970;-69
2023/05/12 07:00:20;;;;;;;;;;;;;;;14.46;59.98;102438.97;5072256;28;19913;-69
2023/05/12 07:02:45;;;;;;;;;;;;;;;14.49;59.05;102443.19;5071875;28;19916;-68
2023/05/12 07:05:11;;;;;;;;;;;;;;;14.51;59.25;102444.72;5071781;28;20202;-67
2023/05/12 07:07:37;;;;;;;;;;;;;;;14.60;58.59;102447.50;5071749;28;20016;-68
2023/05/12 07:10:03;;;;;;;;;;;;;;;14.67;58.05;102436.03;5071726;28;20360;-68
2023/05/12 07:12:28;;;;;;;;;;;;;;;14.77;57.47;102441.38;5071852;28;20027;-68
2023/05/12 07:14:54;;;;;;;;;;;;;;;14.84;58.60;102437.94;5072381;28;20021;-66
2023/05/12 07:17:20;;;;;;;;;;;;;;;14.93;55.74;102441.53;5072834;28;19920;-68
2023/05/12 07:19:45;;;;;;;;;;;;;;;14.98;55.78;102444.59;5072322;28;20368;-69
2023/05/12 07:22:11;;;;;;;;;;;;;;;14.99;55.36;102446.28;5072335;28;19919;-69
2023/05/12 07:24:37;;;;;;;;;;;;;;;15.03;55.03;102452.19;5072019;28;19948;-69
2023/05/12 07:27:02;;;;;;;;;;;;;;;15.07;53.05;102454.47;5071774;28;20011;-69
2023/05/12 07:29:30;;;;;;;;;;;;;;;15.08;53.88;102448.09;5071870;28;20011;-68
2023/05/12 07:31:56;;;;;;;;;;;;;;;15.17;53.71;102449.88;5072269;28;19912;-69
2023/05/12 07:34:21;;;;;;;;;;;;;;;15.21;52.83;102444.19;5072088;28;20031;-69
2023/05/12 07:36:46;;;;;;;;;;;;;;;15.23;53.81;102448.41;5071815;28;19912;-69
2023/05/12 07:39:13;;;;;;;;;;;;;;;15.34;53.64;102450.03;5071543;28;20352;-70
2023/05/12 07:41:39;;;;;;;;;;;;;;;15.36;53.30;102448.03;5070649;28;19919;-69
2023/05/12 07:44:05;;;;;;;;;;;;;;;15.36;53.29;102453.41;5072854;28;19924;-68
2023/05/12 07:46:30;;;;;;;;;;;;;;;15.37;53.27;102447.03;5075636;28;19965;-69
2023/05/12 07:48:56;;;;;;;;;;;;;;;15.39;53.25;102448.56;5075410;28;19995;-71
2023/05/12 07:51:21;;;;;;;;;;;;;;;15.37;52.91;102447.03;5075590;28;19916;-68
2023/05/12 07:53:46;;;;;;;;;;;;;;;15.41;54.03;102451.09;5075267;28;20360;-70
2023/05/12 07:56:12;;;;;;;;;;;;;;;15.43;53.90;102449.97;5075491;28;19939;-70
2023/05/12 07:58:37;;;;;;;;;;;;;;;15.48;54.31;102444.13;5074117;28;19916;-70
2023/05/12 08:01:04;;;;;;;;;;;;;;;15.56;54.87;102449.56;5075385;28;20290;-69
2023/05/12 08:03:30;;;;;;;;;;;;;;;15.59;54.94;102449.28;5075428;28;20026;-68
2023/05/12 08:05:56;;;;;;;;;;;;;;;15.65;54.66;102443.31;5075245;28;20368;-69
2023/05/12 08:08:21;;;;;;;;;;;;;;;15.71;54.38;102452.59;5075060;28;19913;-68
2023/05/12 08:10:46;;;;;;;;;;;;;;;15.72;55.05;102444.38;5074893;28;19912;-68
2023/05/12 08:13:12;;;;;;;;;;;;;;;15.74;54.18;102450.44;5073732;28;20311;-69
2023/05/12 08:15:37;;;;;;;;;;;;;;;15.80;54.23;102447.13;5075267;28;19912;-68
2023/05/12 08:18:03;;;;;;;;;;;;;;;15.88;54.10;102442.78;5074821;28;20413;-68
2023/05/12 08:20:28;;;;;;;;;;;;;;;15.90;54.13;102440.78;5074819;28;20479;-66
2023/05/12 08:22:53;;;;;;;;;;;;;;;15.93;54.86;102444.03;5074772;28;20237;-67
2023/05/12 08:25:19;;;;;;;;;;;;;;;15.98;54.46;102449.78;5073437;28;19920;-67
2023/05/12 08:27:45;;;;;;;;;;;;;;;16.06;54.51;102446.28;5074393;28;19961;-67
2023/05/12 08:30:11;;;;;;;;;;;;;;;16.08;53.51;102442.44;5074402;28;19955;-67
2023/05/12 08:32:36;;;;;;;;;;;;;;;16.10;52.66;102442.28;5074256;28;20588;-68
2023/05/12 08:35:02;;;;;;;;;;;;;;;16.07;52.63;102437.22;5074076;28;20340;-66
2023/05/12 08:37:28;;;;;;;;;;;;;;;16.14;53.65;102438.28;5074499;28;19913;-67
2023/05/12 08:39:55;;;;;;;;;;;;;;;16.29;53.43;102442.09;5074023;28;19995;-67
2023/05/12 08:42:20;;;;;;;;;;;;;;;16.35;52.75;102444.13;5074538;28;19924;-67
2023/05/12 08:44:52;;;;;;;;;;;;;;;16.41;52.37;102435.41;5074115;28;19923;-67
2023/05/12 08:47:19;;;;;;;;;;;;;;;16.48;52.39;102441.03;5073531;28;20033;-67
2023/05/12 08:49:48;;;;;;;;;;;;;;;16.52;52.06;102436.16;5074242;28;20447;-67
2023/05/12 08:52:17;;;;;;;;;;;;;;;16.54;51.46;102442.22;5074253;28;19916;-68
2023/05/12 08:54:43;;;;;;;;;;;;;;;16.57;51.85;102444.59;5074328;28;19967;-67
2023/05/12 08:57:08;;;;;;;;;;;;;;;16.62;50.80;102447.63;5074227;28;20406;-68
2023/05/12 08:59:35;;;;;;;;;;;;;;;16.63;50.67;102439.38;5074197;28;19913;-68
2023/05/12 09:02:03;;;;;;;;;;;;;;;16.68;50.53;102433.56;5073959;28;20046;-67
2023/05/12 09:04:28;;;;;;;;;;;;;;;16.69;47.56;102430.69;5073847;28;19965;-68
2023/05/12 09:06:53;;;;;;;;;;;;;;;16.73;47.74;102436.59;5073754;28;20003;-68
2023/05/12 09:09:19;;;;;;;;;;;;;;;16.80;45.82;102429.59;5073510;28;20352;-68
2023/05/12 09:11:48;;;;;;;;;;;;;;;16.94;45.28;102439.72;5073702;28;20404;-69
2023/05/12 09:14:16;;;;;;;;;;;;;;;17.04;43.98;102437.69;5073298;28;20052;-72
2023/05/12 09:16:43;;;;;;;;;;;;;;;17.11;43.46;102431.69;5073213;28;19916;-68
2023/05/12 09:19:08;;;;;;;;;;;;;;;17.17;42.73;102429.16;5072805;28;20326;-67
2023/05/12 09:21:34;;;;;;;;;;;;;;;17.13;41.16;102430.50;5072898;28;19916;-66
2023/05/12 09:24:06;;;;;;;;;;;;;;;17.13;41.71;102427.81;5073207;28;20380;-68
2023/05/12 09:26:48;;;;;;;;;;;;;;;17.18;41.66;102421.94;5072919;28;20352;-67
2023/05/12 09:29:13;;;;;;;;;;;;;;;17.19;39.50;102440.63;5069332;28;19920;-71
2023/05/12 09:31:47;;;;;;;;;;;;;;;17.21;40.23;102433.22;5072561;28;19912;-68
2023/05/12 09:34:12;;;;;;;;;;;;;;;17.22;39.46;102431.38;5072982;28;19916;-68
2023/05/12 09:36:38;;;;;;;;;;;;;;;17.20;38.60;102431.53;5072709;28;19931;-69
2023/05/12 09:39:05;;;;;;;;;;;;;;;17.15;38.53;102427.66;5069955;28;19939;-67
2023/05/12 09:41:34;;;;;;;;;;;;;;;17.13;38.54;102425.13;5072858;28;19916;-68
2023/05/12 09:44:00;;;;;;;;;;;;;;;17.21;38.37;102424.28;5072561;28;19944;-67
2023/05/12 09:46:25;;;;;;;;;;;;;;;17.28;38.27;102428.84;5072696;28;19943;-68
2023/05/12 09:48:53;;;;;;;;;;;;;;;17.29;37.67;102424.28;5072678;28;20011;-69
2023/05/12 09:51:19;;;;;;;;;;;;;;;17.30;37.72;102417.91;5072789;28;19959;-71
2023/05/12 09:53:45;;;;;;;;;;;;;;;17.25;37.29;102425.63;5073179;28;20345;-69
2023/05/12 09:56:12;;;;;;;;;;;;;;;17.20;37.44;102420.75;5072797;28;19912;-69
2023/05/12 09:58:40;;;;;;;;;;;;;;;17.16;36.67;102418.56;5072717;28;19921;-66
2023/05/12 10:01:06;;;;;;;;;;;;;;;17.15;36.40;102411.50;5072260;28;19916;-69
2023/05/12 10:03:33;;;;;;;;;;;;;;;17.16;36.23;102419.41;5072479;28;19989;-68
2023/05/12 10:06:01;;;;;;;;;;;;;;;17.20;37.04;102419.91;5072440;28;19912;-67
2023/05/12 10:08:39;;;;;;;;;;;;;;;17.25;36.50;102423.78;5071676;28;19912;-66
2023/05/12 10:11:05;;;;;;;;;;;;;;;17.29;36.59;102413.53;5070957;28;20825;-68
2023/05/12 10:13:32;;;;;;;;;;;;;;;17.30;36.20;102420.59;5072090;28;20014;-68
2023/05/12 10:15:57;;;;;;;;;;;;;;;17.24;36.63;102422.09;5072377;28;20010;-68
2023/05/12 10:18:23;;;;;;;;;;;;;;;17.18;36.95;102432.69;5072521;28;20381;-67
2023/05/12 10:20:50;;;;;;;;;;;;;;;17.15;36.86;102417.72;5071825;28;19920;-69
2023/05/12 10:23:17;;;;;;;;;;;;;;;17.15;36.39;102424.97;5072177;28;19916;-67
2023/05/12 10:25:43;;;;;;;;;;;;;;;17.18;36.45;102427.31;5072164;28;19913;-67
2023/05/12 10:28:08;;;;;;;;;;;;;;;17.14;35.83;102432.19;5071532;28;19912;-68
2023/05/12 10:30:34;;;;;;;;;;;;;;;17.15;36.19;102422.28;5071866;28;20357;-67
2023/05/12 10:33:01;;;;;;;;;;;;;;;17.21;35.52;102424.28;5072044;28;19920;-68
2023/05/12 10:35:37;;;;;;;;;;;;;;;17.18;35.34;102424.63;5071953;28;19919;-67
2023/05/12 10:38:09;;;;;;;;;;;;;;;17.14;36.09;102421.44;5065335;28;19955;-67
2023/05/12 10:40:34;;;;;;;;;;;;;;;17.14;35.58;102415.19;5069338;28;20668;-67
2023/05/12 10:43:00;;;;;;;;;;;;;;;17.13;35.35;102418.91;5071873;28;20012;-67
2023/05/12 10:45:25;;;;;;;;;;;;;;;17.11;35.32;102410.16;5071992;28;19923;-67
2023/05/12 10:47:51;;;;;;;;;;;;;;;17.10;35.52;102419.22;5071663;28;20252;-69
2023/05/12 10:50:26;;;;;;;;;;;;;;;17.13;35.56;102414.34;5071562;28;19916;-69
2023/05/12 10:52:55;;;;;;;;;;;;;;;17.15;35.15;102417.72;5072013;28;19918;-66
2023/05/12 10:55:33;;;;;;;;;;;;;;;17.15;35.55;102416.88;5068981;28;20346;-67
2023/05/12 10:58:08;;;;;;;;;;;;;;;17.14;35.02;102420.59;5066414;28;19916;-67
2023/05/12 11:00:42;;;;;;;;;;;;;;;17.19;34.20;102423.63;5071490;28;19920;-68
2023/05/12 11:03:10;;;;;;;;;;;;;;;17.12;34.48;102418.06;5069943;28;20287;-68
2023/05/12 11:05:35;;;;;;;;;;;;;;;17.09;35.01;102422.94;5071995;28;19916;-70
2023/05/12 11:08:01;;;;;;;;;;;;;;;17.18;34.95;102422.78;5071535;28;19999;-68
2023/05/12 11:10:27;;;;;;;;;;;;;;;17.14;34.41;102418.72;5071790;28;19913;-68
2023/05/12 11:12:53;;;;;;;;;;;;;;;17.15;34.76;102423.13;5071845;28;19912;-68
2023/05/12 11:15:19;;;;;;;;;;;;;;;17.19;35.18;102423.63;5071253;28;20370;-69
2023/05/12 11:17:44;;;;;;;;;;;;;;;17.22;34.68;102418.75;5071545;28;19923;-65
2023/05/12 11:20:20;;;;;;;;;;;;;;;17.20;34.00;102410.00;5073571;28;19912;-68
2023/05/12 11:22:46;;;;;;;;;;;;;;;17.26;34.66;102425.47;5075530;28;20021;-72
2023/05/12 11:25:11;;;;;;;;;;;;;;;17.26;33.93;102408.47;5075340;28;20344;-68
2023/05/12 11:27:43;;;;;;;;;;;;;;;17.30;34.89;102421.44;5075655;28;20430;-68
2023/05/12 11:30:10;;;;;;;;;;;;;;;17.34;34.34;102417.41;5075400;28;19958;-68
2023/05/12 11:32:35;;;;;;;;;;;;;;;17.36;34.71;102419.94;5074828;28;19924;-68
2023/05/12 11:35:11;;;;;;;;;;;;;;;17.38;34.00;102417.94;5075127;28;20029;-68
2023/05/12 11:37:40;;;;;;;;;;;;;;;17.42;34.37;102413.88;5068401;28;19921;-67
2023/05/12 11:40:15;;;;;;;;;;;;;;;17.37;33.99;102410.03;5074919;28;19916;-67
2023/05/12 11:42:44;;;;;;;;;;;;;;;17.39;34.66;102402.63;5074788;28;20276;-67
2023/05/12 11:45:22;;;;;;;;;;;;;;;17.44;34.16;102403.78;5074780;28;19912;-67
2023/05/12 11:47:47;;;;;;;;;;;;;;;17.51;33.95;102406.66;5074434;28;19916;-66
2023/05/12 11:50:18;;;;;;;;;;;;;;;17.53;33.82;102408.16;5075174;28;20356;-67
2023/05/12 11:52:44;;;;;;;;;;;;;;;17.51;33.83;102407.50;5075225;28;19920;-66
2023/05/12 11:55:10;;;;;;;;;;;;;;;17.50;34.03;102400.41;5074277;28;19913;-68
2023/05/12 11:57:36;;;;;;;;;;;;;;;17.47;34.46;102398.06;5075112;28;19920;-69
2023/05/12 12:00:06;;;;;;;;;;;;;;;17.47;34.25;102399.91;5075014;28;19920;-68
2023/05/12 12:02:32;;;;;;;;;;;;;;;17.47;34.51;102392.69;5075459;28;20007;-67
2023/05/12 12:04:57;;;;;;;;;;;;;;;17.50;34.74;102392.34;5074452;28;20015;-68
2023/05/12 12:07:30;;;;;;;;;;;;;;;17.48;34.17;102396.22;5074691;28;20352;-67
2023/05/12 12:09:55;;;;;;;;;;;;;;;17.44;35.00;102402.94;5074466;28;19923;-66
2023/05/12 12:12:20;;;;;;;;;;;;;;;17.36;34.68;102387.63;5074217;28;20373;-69
2023/05/12 12:14:46;;;;;;;;;;;;;;;17.42;34.89;102392.34;5074217;28;19957;-66
2023/05/12 12:17:11;;;;;;;;;;;;;;;17.46;35.08;102387.47;5074360;28;19917;-68
2023/05/12 12:19:37;;;;;;;;;;;;;;;17.50;35.40;102389.66;5074226;28;20272;-67
2023/05/12 12:22:02;;;;;;;;;;;;;;;17.56;34.98;102383.56;5074204;28;20399;-70
2023/05/12 12:24:27;;;;;;;;;;;;;;;17.61;34.62;102391.97;5074138;28;20045;-67
2023/05/12 12:26:53;;;;;;;;;;;;;;;17.68;34.94;102391.38;5074395;28;20279;-66
2023/05/12 12:29:18;;;;;;;;;;;;;;;17.77;34.88;102393.88;5073768;28;20260;-66
2023/05/12 12:31:43;;;;;;;;;;;;;;;17.74;34.22;102388.81;5073375;28;19912;-69
2023/05/12 12:34:09;;;;;;;;;;;;;;;17.74;33.67;102387.97;5074176;28;19916;-70
2023/05/12 12:36:34;;;;;;;;;;;;;;;17.76;33.47;102394.03;5074490;28;19912;-68